Alleyton, Texas
Current Conditions -  °F | °C
As of 4:15 PM on Wednesday 28 Jan 2015 (Local Time) from K66R Reporting Station
Clear Clear  
Wind Chill: 76°   Ceiling: Unl
Heat Index: 76°   Visibility: 10mi
Dew Point: 43°   Wind: 12mph
Humidity: 31%   Direction: 170°S
Pressure: 30.1"   Gusts: NA
Location:  29.71°N, 96.49°W
Report Text: K66R 282215Z AUTO 17010KT 10SM CLR 24/06 A3010 RMK AO2 T02430061
Loading
Personal Weather Stations






























Interactive Weather Map New forecast layout! Learn more

10-Day Weather Forecast

Advertisements
Track Severe Weather on mobile